createdAt,value
2023-01-27T00:00:33.268Z,94.94
2023-01-27T00:01:33.254Z,94.84
2023-01-27T00:02:33.333Z,94.48
2023-01-27T00:03:33.382Z,94.27
2023-01-27T00:04:33.228Z,94.42
2023-01-27T00:05:33.213Z,94.73
2023-01-27T00:06:33.200Z,94.90
2023-01-27T00:07:33.190Z,95.00
2023-01-27T00:08:33.170Z,95.04
2023-01-27T00:09:33.158Z,95.32
2023-01-27T00:10:33.148Z,95.10
2023-01-27T00:11:33.137Z,94.52
2023-01-27T00:12:33.117Z,94.73
2023-01-27T00:13:33.128Z,95.15
2023-01-27T00:14:33.092Z,95.26
2023-01-27T00:15:33.090Z,94.94
2023-01-27T00:16:33.080Z,95.15
2023-01-27T00:17:33.054Z,95.36
2023-01-27T00:18:33.077Z,95.36
2023-01-27T00:19:33.027Z,95.26
2023-01-27T00:20:33.015Z,95.04
2023-01-27T00:21:33.008Z,95.26
2023-01-27T00:22:33.000Z,95.15
2023-01-27T00:23:32.977Z,95.09
2023-01-27T00:24:32.965Z,94.94
2023-01-27T00:25:32.959Z,95.04
2023-01-27T00:26:32.945Z,94.94
2023-01-27T00:27:35.104Z,95.04
2023-01-27T00:28:32.925Z,95.26
2023-01-27T00:29:32.902Z,95.26
2023-01-27T00:30:32.965Z,95.57
2023-01-27T00:31:32.903Z,95.57
2023-01-27T00:32:32.892Z,95.57
2023-01-27T00:33:32.856Z,95.26
2023-01-27T00:34:32.895Z,95.15
2023-01-27T00:35:32.826Z,95.15
2023-01-27T00:36:32.811Z,94.62
2023-01-27T00:37:32.801Z,94.84
2023-01-27T00:38:32.801Z,94.94
2023-01-27T00:39:32.780Z,94.84
2023-01-27T00:40:32.785Z,95.04
2023-01-27T00:41:32.749Z,94.62
2023-01-27T00:42:32.743Z,94.42
2023-01-27T00:43:32.727Z,94.62
2023-01-27T00:44:32.723Z,94.84
2023-01-27T00:45:32.699Z,94.62
2023-01-27T00:46:32.751Z,94.73
2023-01-27T00:47:32.673Z,94.94
2023-01-27T00:48:32.661Z,94.94
2023-01-27T00:49:32.648Z,94.98
2023-01-27T00:50:32.667Z,94.98
2023-01-27T00:51:32.627Z,95.15
2023-01-27T00:52:32.633Z,94.78
2023-01-27T00:53:32.604Z,94.62
2023-01-27T00:54:32.593Z,94.73
2023-01-27T00:55:32.575Z,94.73
2023-01-27T00:56:32.561Z,94.84
2023-01-27T00:57:32.590Z,95.15
2023-01-27T00:58:32.545Z,95.40
2023-01-27T00:59:32.527Z,95.36
2023-01-27T01:00:32.518Z,95.26
2023-01-27T01:01:32.513Z,95.09
2023-01-27T01:02:32.620Z,94.94
2023-01-27T01:03:32.479Z,94.88
2023-01-27T01:04:32.465Z,94.78
2023-01-27T01:05:32.461Z,94.88
2023-01-27T01:06:32.462Z,94.98
2023-01-27T01:07:32.434Z,94.62
2023-01-27T01:08:32.412Z,94.46
2023-01-27T01:09:32.396Z,94.78
2023-01-27T01:10:32.393Z,94.73
2023-01-27T01:11:32.387Z,94.35
2023-01-27T01:12:32.360Z,94.42
2023-01-27T01:13:32.360Z,94.35
2023-01-27T01:14:32.340Z,93.68
2023-01-27T01:15:32.326Z,93.62
2023-01-27T01:16:32.305Z,93.79
2023-01-27T01:17:32.295Z,93.72
2023-01-27T01:18:32.282Z,93.83
2023-01-27T01:19:32.274Z,94.04
2023-01-27T01:20:32.262Z,94.25
2023-01-27T01:21:32.242Z,93.83
2023-01-27T01:22:32.268Z,93.57
2023-01-27T01:23:32.217Z,93.62
2023-01-27T01:24:32.205Z,93.51
2023-01-27T01:25:32.202Z,93.47
2023-01-27T01:26:32.176Z,93.62
2023-01-27T01:27:32.173Z,93.51
2023-01-27T01:28:32.159Z,93.41
2023-01-27T01:29:32.147Z,92.84
2023-01-27T01:30:32.152Z,92.94
2023-01-27T01:31:32.179Z,92.94
2023-01-27T01:32:32.100Z,92.94
2023-01-27T01:33:32.094Z,92.73
2023-01-27T01:34:32.101Z,92.94
2023-01-27T01:35:32.088Z,93.15
2023-01-27T01:36:32.055Z,93.15
2023-01-27T01:37:32.045Z,93.09
2023-01-27T01:38:32.063Z,93.26
2023-01-27T01:39:32.016Z,93.41
2023-01-27T01:40:32.014Z,93.51
2023-01-27T01:41:32.001Z,93.83
2023-01-27T01:42:31.973Z,94.25
2023-01-27T01:43:31.959Z,94.46
2023-01-27T01:44:31.951Z,94.56
2023-01-27T01:45:32.004Z,94.78
2023-01-27T01:46:31.958Z,94.78
2023-01-27T01:47:31.917Z,94.35
2023-01-27T01:48:32.070Z,94.14
2023-01-27T01:49:31.886Z,94.04
2023-01-27T01:50:31.888Z,94.04
2023-01-27T01:51:31.871Z,94.14
2023-01-27T01:52:31.865Z,94.35
2023-01-27T01:53:31.837Z,93.93
2023-01-27T01:54:31.854Z,93.72
2023-01-27T01:55:31.823Z,93.72
2023-01-27T01:56:31.814Z,93.83
2023-01-27T01:57:31.789Z,94.14
2023-01-27T01:58:31.780Z,94.46
2023-01-27T01:59:31.767Z,94.25
2023-01-27T02:00:31.758Z,93.83
2023-01-27T02:01:31.780Z,93.83
2023-01-27T02:02:31.854Z,93.72
2023-01-27T02:03:31.731Z,93.93
2023-01-27T02:04:31.704Z,94.08
2023-01-27T02:05:31.690Z,94.25
2023-01-27T02:06:31.673Z,94.46
2023-01-27T02:07:31.655Z,94.25
2023-01-27T02:08:31.649Z,94.25
2023-01-27T02:09:31.643Z,94.46
2023-01-27T02:10:31.654Z,94.25
2023-01-27T02:11:31.639Z,94.04
2023-01-27T02:12:31.609Z,93.93
2023-01-27T02:13:31.590Z,94.04
2023-01-27T02:14:31.566Z,93.93
2023-01-27T02:15:31.563Z,93.93
2023-01-27T02:16:31.584Z,94.14
2023-01-27T02:17:31.529Z,94.35
2023-01-27T02:18:31.529Z,94.35
2023-01-27T02:19:31.512Z,94.46
2023-01-27T02:20:31.505Z,94.56
2023-01-27T02:21:31.481Z,94.88
2023-01-27T02:22:31.479Z,95.09
2023-01-27T02:23:31.470Z,95.20
2023-01-27T02:24:31.448Z,95.09
2023-01-27T02:25:31.436Z,95.09
2023-01-27T02:26:31.450Z,95.20
2023-01-27T02:27:31.402Z,95.20
2023-01-27T02:28:31.402Z,94.88
2023-01-27T02:29:31.387Z,94.46
2023-01-27T02:30:31.496Z,94.14
2023-01-27T02:31:31.599Z,94.25
2023-01-27T02:32:31.342Z,94.46
2023-01-27T02:33:31.332Z,94.67
2023-01-27T02:34:31.323Z,94.88
2023-01-27T02:35:31.316Z,94.88
2023-01-27T02:36:31.296Z,94.88
2023-01-27T02:37:31.288Z,94.88
2023-01-27T02:38:31.262Z,94.88
2023-01-27T02:39:31.256Z,94.98
2023-01-27T02:40:31.262Z,94.98
2023-01-27T02:41:31.226Z,94.94
2023-01-27T02:42:31.247Z,94.73
2023-01-27T02:43:31.207Z,94.46
2023-01-27T02:44:31.194Z,94.31
2023-01-27T02:45:31.181Z,94.35
2023-01-27T02:46:31.203Z,94.46
2023-01-27T02:47:31.156Z,94.67
2023-01-27T02:48:31.141Z,94.88
2023-01-27T02:49:31.133Z,94.78
2023-01-27T02:50:31.120Z,94.56
2023-01-27T02:51:31.103Z,94.46
2023-01-27T02:52:31.089Z,94.25
2023-01-27T02:53:31.078Z,94.14
2023-01-27T02:54:31.083Z,94.25
2023-01-27T02:55:31.056Z,94.46
2023-01-27T02:56:31.034Z,94.98
2023-01-27T02:57:31.035Z,95.30
2023-01-27T02:58:31.040Z,95.51
2023-01-27T02:59:31.004Z,95.30
2023-01-27T03:00:31.003Z,95.30
2023-01-27T03:01:31.028Z,95.20
2023-01-27T03:02:31.076Z,95.09
2023-01-27T03:03:30.957Z,94.88
2023-01-27T03:04:30.932Z,94.78
2023-01-27T03:05:30.928Z,94.98
2023-01-27T03:06:30.907Z,95.09
2023-01-27T03:07:30.899Z,95.20
2023-01-27T03:08:30.889Z,95.40
2023-01-27T03:09:30.888Z,95.40
2023-01-27T03:10:30.860Z,95.40
2023-01-27T03:11:30.848Z,95.51
2023-01-27T03:12:30.843Z,95.72
2023-01-27T03:13:30.839Z,95.83
2023-01-27T03:14:30.840Z,95.83
2023-01-27T03:15:30.842Z,96.03
2023-01-27T03:16:30.781Z,95.93
2023-01-27T03:17:30.768Z,95.83
2023-01-27T03:18:30.756Z,95.93
2023-01-27T03:19:30.751Z,95.93
2023-01-27T03:20:30.738Z,95.72
2023-01-27T03:21:30.725Z,95.72
2023-01-27T03:22:30.704Z,95.62
2023-01-27T03:23:30.705Z,95.40
2023-01-27T03:24:30.685Z,95.51
2023-01-27T03:25:30.678Z,95.62
2023-01-27T03:26:30.661Z,95.57
2023-01-27T03:27:30.642Z,95.30
2023-01-27T03:28:30.632Z,95.30
2023-01-27T03:29:30.619Z,95.51
2023-01-27T03:30:30.632Z,95.62
2023-01-27T03:31:30.663Z,95.83
2023-01-27T03:32:30.584Z,96.03
2023-01-27T03:33:30.571Z,96.03
2023-01-27T03:34:30.551Z,96.03
2023-01-27T03:35:30.539Z,96.03
2023-01-27T03:36:30.532Z,96.03
2023-01-27T03:37:30.512Z,96.03
2023-01-27T03:38:30.502Z,96.25
2023-01-27T03:39:30.495Z,96.14
2023-01-27T03:40:30.489Z,95.72
2023-01-27T03:41:30.463Z,95.68
2023-01-27T03:42:30.460Z,95.78
2023-01-27T03:43:30.446Z,95.57
2023-01-27T03:44:30.424Z,95.40
2023-01-27T03:45:30.421Z,95.51
2023-01-27T03:46:30.451Z,95.62
2023-01-27T03:47:30.395Z,95.20
2023-01-27T03:48:30.375Z,94.78
2023-01-27T03:49:30.362Z,94.78
2023-01-27T03:50:30.357Z,94.78
2023-01-27T03:51:30.344Z,94.88
2023-01-27T03:52:30.328Z,94.98
2023-01-27T03:53:30.316Z,94.98
2023-01-27T03:54:30.309Z,95.20
2023-01-27T03:55:30.292Z,95.40
2023-01-27T03:56:30.303Z,95.40
2023-01-27T03:57:30.263Z,95.72
2023-01-27T03:58:30.248Z,95.68
2023-01-27T03:59:30.242Z,95.51
2023-01-27T04:00:30.230Z,95.40
2023-01-27T04:01:30.251Z,95.20
2023-01-27T04:02:30.245Z,95.09
2023-01-27T04:03:30.194Z,95.20
2023-01-27T04:04:30.205Z,95.51
2023-01-27T04:05:30.173Z,95.62
2023-01-27T04:06:30.161Z,95.62
2023-01-27T04:07:30.148Z,95.72
2023-01-27T04:08:30.122Z,95.93
2023-01-27T04:09:30.115Z,95.93
2023-01-27T04:10:30.095Z,95.83
2023-01-27T04:11:31.853Z,95.83
2023-01-27T04:12:30.079Z,96.03
2023-01-27T04:13:30.069Z,96.14
2023-01-27T04:14:30.082Z,95.93
2023-01-27T04:15:30.044Z,95.72
2023-01-27T04:16:30.031Z,95.30
2023-01-27T04:17:30.018Z,95.30
2023-01-27T04:18:30.029Z,95.51
2023-01-27T04:19:29.993Z,95.62
2023-01-27T04:20:29.980Z,95.83
2023-01-27T04:21:29.961Z,95.89
2023-01-27T04:22:29.954Z,95.89
2023-01-27T04:23:29.931Z,95.68
2023-01-27T04:24:29.946Z,95.47
2023-01-27T04:25:29.907Z,95.57
2023-01-27T04:26:29.902Z,95.57
2023-01-27T04:27:29.886Z,95.04
2023-01-27T04:28:43.961Z,94.84
2023-01-27T04:29:30.893Z,94.62
2023-01-27T04:30:29.847Z,94.73
2023-01-27T04:31:29.867Z,94.88
2023-01-27T04:32:29.825Z,95.04
2023-01-27T04:33:29.805Z,95.15
2023-01-27T04:34:29.824Z,94.94
2023-01-27T04:35:38.435Z,94.84
2023-01-27T04:36:30.803Z,94.94
2023-01-27T04:37:29.765Z,94.84
2023-01-27T04:38:29.748Z,94.84
2023-01-27T04:39:29.726Z,94.94
2023-01-27T04:40:29.713Z,94.94
2023-01-27T04:41:29.703Z,95.20
2023-01-27T04:42:29.699Z,95.40
2023-01-27T04:43:29.675Z,95.57
2023-01-27T04:44:29.679Z,95.68
2023-01-27T04:45:29.683Z,95.78
2023-01-27T04:46:29.641Z,95.89
2023-01-27T04:47:29.634Z,95.68
2023-01-27T04:48:29.637Z,95.78
2023-01-27T04:49:29.608Z,95.68
2023-01-27T04:50:29.646Z,95.47
2023-01-27T04:51:29.582Z,95.57
2023-01-27T04:52:29.576Z,95.36
2023-01-27T04:53:29.574Z,95.15
2023-01-27T04:54:29.544Z,94.94
2023-01-27T04:55:29.535Z,94.94
2023-01-27T04:56:29.529Z,95.04
2023-01-27T04:57:29.505Z,95.15
2023-01-27T04:58:29.489Z,95.26
2023-01-27T04:59:29.491Z,95.30
2023-01-27T05:00:29.473Z,95.36
2023-01-27T05:01:29.481Z,95.57
2023-01-27T05:02:29.435Z,95.68
2023-01-27T05:03:29.443Z,95.57
2023-01-27T05:04:29.418Z,95.57
2023-01-27T05:05:29.410Z,95.57
2023-01-27T05:06:29.465Z,95.57
2023-01-27T05:07:31.307Z,95.40
2023-01-27T05:08:29.366Z,95.09
2023-01-27T05:09:29.355Z,95.09
2023-01-27T05:10:29.336Z,95.09
2023-01-27T05:11:29.327Z,95.20
2023-01-27T05:12:29.319Z,95.30
2023-01-27T05:13:29.305Z,95.51
2023-01-27T05:14:29.285Z,95.30
2023-01-27T05:15:29.341Z,95.40
2023-01-27T05:16:29.306Z,95.62
2023-01-27T05:17:29.245Z,95.83
2023-01-27T05:18:29.239Z,95.83
2023-01-27T05:19:29.222Z,95.72
2023-01-27T05:20:29.210Z,95.72
2023-01-27T05:21:29.196Z,95.62
2023-01-27T05:22:29.204Z,95.30
2023-01-27T05:23:29.177Z,95.09
2023-01-27T05:24:29.211Z,94.98
2023-01-27T05:25:29.150Z,95.09
2023-01-27T05:26:29.147Z,95.30
2023-01-27T05:27:29.125Z,95.40
2023-01-27T05:28:29.278Z,95.62
2023-01-27T05:29:29.105Z,95.93
2023-01-27T05:30:29.088Z,95.83
2023-01-27T05:31:29.273Z,95.72
2023-01-27T05:32:29.061Z,95.72
2023-01-27T05:33:29.049Z,95.62
2023-01-27T05:34:29.037Z,95.51
2023-01-27T05:35:29.023Z,95.40
2023-01-27T05:36:29.025Z,95.40
2023-01-27T05:37:28.992Z,95.62
2023-01-27T05:38:29.011Z,95.62
2023-01-27T05:39:28.964Z,95.62
2023-01-27T05:40:28.952Z,95.93
2023-01-27T05:41:28.948Z,96.03
2023-01-27T05:42:28.925Z,96.14
2023-01-27T05:43:28.915Z,96.14
2023-01-27T05:44:28.924Z,96.14
2023-01-27T05:45:28.897Z,96.25
2023-01-27T05:46:28.913Z,96.20
2023-01-27T05:47:28.871Z,96.14
2023-01-27T05:48:28.855Z,95.99
2023-01-27T05:49:28.851Z,96.20
2023-01-27T05:50:28.838Z,96.41
2023-01-27T05:51:28.820Z,96.51
2023-01-27T05:52:28.799Z,96.41
2023-01-27T05:53:28.786Z,96.10
2023-01-27T05:54:28.803Z,95.57
2023-01-27T05:55:28.778Z,95.26
2023-01-27T05:56:28.771Z,95.36
2023-01-27T05:57:28.742Z,95.04
2023-01-27T05:58:28.728Z,94.94
2023-01-27T05:59:28.717Z,95.15
2023-01-27T06:00:28.717Z,95.04
2023-01-27T06:01:28.747Z,95.26
2023-01-27T06:02:28.723Z,95.26
2023-01-27T06:03:28.664Z,95.47
2023-01-27T06:04:28.657Z,95.47
2023-01-27T06:05:28.662Z,95.62
2023-01-27T06:06:28.628Z,95.68
2023-01-27T06:07:28.612Z,95.68
2023-01-27T06:08:28.602Z,95.51
2023-01-27T06:09:28.587Z,95.62
2023-01-27T06:10:28.608Z,95.72
2023-01-27T06:11:28.576Z,95.68
2023-01-27T06:12:28.553Z,95.72
2023-01-27T06:13:28.543Z,95.83
2023-01-27T06:14:28.526Z,95.72
2023-01-27T06:15:28.505Z,95.68
2023-01-27T06:16:28.564Z,95.78
2023-01-27T06:17:28.486Z,95.89
2023-01-27T06:18:28.474Z,95.89
2023-01-27T06:19:28.456Z,95.89
2023-01-27T06:20:28.452Z,95.89
2023-01-27T06:21:28.438Z,95.40
2023-01-27T06:22:28.433Z,95.26
2023-01-27T06:23:28.411Z,95.47
2023-01-27T06:24:28.460Z,95.57
2023-01-27T06:25:28.388Z,95.36
2023-01-27T06:26:28.396Z,95.26
2023-01-27T06:27:28.362Z,95.26
2023-01-27T06:28:29.887Z,95.20
2023-01-27T06:29:28.330Z,95.09
2023-01-27T06:30:28.329Z,95.15
2023-01-27T06:31:28.460Z,95.15
2023-01-27T06:32:28.301Z,95.15
2023-01-27T06:33:28.282Z,94.94
2023-01-27T06:34:28.264Z,94.94
2023-01-27T06:35:28.253Z,94.88
2023-01-27T06:36:28.244Z,94.78
2023-01-27T06:37:28.239Z,94.67
2023-01-27T06:38:28.215Z,94.56
2023-01-27T06:39:28.226Z,94.78
2023-01-27T06:40:28.189Z,94.98
2023-01-27T06:41:28.190Z,94.88
2023-01-27T06:42:28.191Z,94.98
2023-01-27T06:43:28.161Z,95.09
2023-01-27T06:44:28.143Z,95.30
2023-01-27T06:45:28.126Z,95.40
2023-01-27T06:46:28.191Z,95.30
2023-01-27T06:47:28.106Z,95.51
2023-01-27T06:48:28.118Z,95.30
2023-01-27T06:49:28.090Z,95.20
2023-01-27T06:50:28.071Z,95.30
2023-01-27T06:51:28.049Z,95.51
2023-01-27T06:52:28.046Z,95.30
2023-01-27T06:53:28.047Z,95.09
2023-01-27T06:54:28.021Z,95.09
2023-01-27T06:55:28.000Z,95.15
2023-01-27T06:56:27.988Z,95.30
2023-01-27T06:57:27.974Z,95.15
2023-01-27T06:58:28.006Z,95.15
2023-01-27T06:59:27.963Z,95.26
2023-01-27T07:00:27.944Z,95.26
2023-01-27T07:01:27.960Z,95.15
2023-01-27T07:02:27.994Z,95.15
2023-01-27T07:03:27.921Z,95.15
2023-01-27T07:04:27.893Z,95.04
2023-01-27T07:05:27.880Z,95.04
2023-01-27T07:06:27.880Z,94.62
2023-01-27T07:07:27.855Z,94.42
2023-01-27T07:08:27.835Z,94.62
2023-01-27T07:09:27.824Z,94.84
2023-01-27T07:10:27.816Z,94.94
2023-01-27T07:11:27.805Z,94.94
2023-01-27T07:12:27.800Z,94.73
2023-01-27T07:13:27.778Z,94.62
2023-01-27T07:14:27.793Z,94.84
2023-01-27T07:15:27.755Z,94.84
2023-01-27T07:16:27.829Z,95.04
2023-01-27T07:17:27.731Z,95.26
2023-01-27T07:18:27.717Z,95.32
2023-01-27T07:19:27.706Z,95.42
2023-01-27T07:20:27.689Z,95.47
2023-01-27T07:21:27.679Z,95.26
2023-01-27T07:22:27.655Z,95.15
2023-01-27T07:23:27.651Z,95.04
2023-01-27T07:24:27.688Z,94.94
2023-01-27T07:25:27.628Z,94.94
2023-01-27T07:26:27.610Z,94.94
2023-01-27T07:27:27.611Z,95.10
2023-01-27T07:28:27.590Z,94.94
2023-01-27T07:29:27.577Z,94.79
2023-01-27T07:30:27.588Z,94.90
2023-01-27T07:31:27.717Z,94.90
2023-01-27T07:32:28.606Z,95.00
2023-01-27T07:33:27.527Z,95.32
2023-01-27T07:34:27.519Z,95.53
2023-01-27T07:35:27.494Z,95.32
2023-01-27T07:36:27.491Z,95.10
2023-01-27T07:37:27.485Z,95.00
2023-01-27T07:38:27.460Z,95.00
2023-01-27T07:39:27.456Z,95.00
2023-01-27T07:40:27.436Z,95.21
2023-01-27T07:41:27.420Z,95.21
2023-01-27T07:42:27.414Z,95.32
2023-01-27T07:43:27.403Z,95.42
2023-01-27T07:44:27.380Z,95.42
2023-01-27T07:45:27.432Z,95.53
2023-01-27T07:46:27.378Z,95.53
2023-01-27T07:47:27.340Z,95.04
2023-01-27T07:48:27.337Z,94.73
2023-01-27T07:49:27.698Z,95.04
2023-01-27T07:50:27.304Z,95.26
2023-01-27T07:51:27.351Z,95.36
2023-01-27T07:52:27.289Z,95.42
2023-01-27T07:53:27.265Z,95.42
2023-01-27T07:54:27.260Z,95.42
2023-01-27T07:55:27.234Z,95.53
2023-01-27T07:56:27.236Z,95.53
2023-01-27T07:57:27.226Z,95.32
2023-01-27T07:58:27.223Z,94.94
2023-01-27T07:59:27.197Z,95.15
2023-01-27T08:00:27.239Z,95.57
2023-01-27T08:01:27.181Z,95.89
2023-01-27T08:02:27.194Z,95.99
2023-01-27T08:03:27.195Z,95.89
2023-01-27T08:04:27.128Z,95.89
2023-01-27T08:05:27.112Z,96.10
2023-01-27T08:06:27.113Z,96.10
2023-01-27T08:07:27.101Z,96.41
2023-01-27T08:08:27.084Z,96.51
2023-01-27T08:09:27.063Z,96.41
2023-01-27T08:10:27.075Z,96.31
2023-01-27T08:11:27.038Z,95.57
2023-01-27T08:12:27.037Z,95.89
2023-01-27T08:13:27.102Z,96.20
2023-01-27T08:14:27.010Z,96.20
2023-01-27T08:15:27.001Z,96.20
2023-01-27T08:16:27.082Z,96.10
2023-01-27T08:17:26.969Z,95.68
2023-01-27T08:18:26.977Z,95.36
2023-01-27T08:19:26.941Z,95.36
2023-01-27T08:20:27.023Z,95.68
2023-01-27T08:21:26.916Z,95.95
2023-01-27T08:22:26.905Z,96.05
2023-01-27T08:23:26.893Z,95.84
2023-01-27T08:24:27.083Z,95.74
2023-01-27T08:25:26.864Z,95.74
2023-01-27T08:26:26.849Z,95.84
2023-01-27T08:27:26.846Z,95.64
2023-01-27T08:28:26.833Z,95.10
2023-01-27T08:29:26.816Z,95.10
2023-01-27T08:30:26.983Z,95.21
2023-01-27T08:31:26.858Z,95.42
2023-01-27T08:32:26.770Z,95.64
2023-01-27T08:33:26.763Z,95.64
2023-01-27T08:34:26.786Z,95.53
2023-01-27T08:35:26.733Z,95.32
2023-01-27T08:36:26.720Z,95.42
2023-01-27T08:37:26.712Z,95.74
2023-01-27T08:38:26.707Z,95.74
2023-01-27T08:39:26.753Z,95.84
2023-01-27T08:40:26.678Z,96.05
2023-01-27T08:41:26.660Z,96.16
2023-01-27T08:42:26.647Z,96.05
2023-01-27T08:43:26.638Z,96.05
2023-01-27T08:44:26.624Z,96.16
2023-01-27T08:45:26.606Z,96.16
2023-01-27T08:46:26.594Z,95.84
2023-01-27T08:47:26.588Z,95.42
2023-01-27T08:48:26.569Z,95.00
2023-01-27T08:49:26.562Z,94.79
2023-01-27T08:50:26.571Z,94.58
2023-01-27T08:51:26.540Z,94.27
2023-01-27T08:52:26.535Z,94.58
2023-01-27T08:53:26.516Z,94.90
2023-01-27T08:54:26.507Z,94.79
2023-01-27T08:55:26.485Z,94.48
2023-01-27T08:56:26.465Z,93.74
2023-01-27T08:57:26.470Z,93.85
2023-01-27T08:58:26.456Z,93.95
2023-01-27T08:59:26.449Z,93.74
2023-01-27T09:00:26.435Z,93.63
2023-01-27T09:01:26.576Z,93.53
2023-01-27T09:02:26.401Z,93.80
2023-01-27T09:03:26.394Z,94.06
2023-01-27T09:04:26.464Z,93.85
2023-01-27T09:05:26.368Z,93.74
2023-01-27T09:06:26.370Z,93.80
2023-01-27T09:07:26.331Z,93.74
2023-01-27T09:08:26.334Z,93.59
2023-01-27T09:09:26.324Z,93.70
2023-01-27T09:10:26.386Z,93.80
2023-01-27T09:11:26.282Z,93.70
2023-01-27T09:12:26.275Z,92.96
2023-01-27T09:13:26.252Z,92.65
2023-01-27T09:14:26.245Z,92.86
2023-01-27T09:15:26.225Z,93.07
2023-01-27T09:16:26.229Z,92.96
2023-01-27T09:17:26.198Z,93.18
2023-01-27T09:18:26.189Z,93.28
2023-01-27T09:19:26.172Z,92.86
2023-01-27T09:20:26.170Z,92.86
2023-01-27T09:21:26.149Z,92.76
2023-01-27T09:22:26.179Z,92.54
2023-01-27T09:23:26.122Z,92.65
2023-01-27T09:24:26.189Z,92.86
2023-01-27T09:25:26.106Z,92.65
2023-01-27T09:26:26.085Z,92.65
2023-01-27T09:27:38.791Z,92.65
2023-01-27T09:28:27.114Z,92.76
2023-01-27T09:29:26.057Z,92.54
2023-01-27T09:30:26.042Z,92.23
2023-01-27T09:31:26.110Z,91.91
2023-01-27T09:32:26.018Z,91.60
2023-01-27T09:33:26.063Z,92.02
2023-01-27T09:34:25.998Z,91.81
2023-01-27T09:35:25.981Z,91.28
2023-01-27T09:36:25.965Z,91.18
2023-01-27T09:37:27.899Z,91.39
2023-01-27T09:38:25.960Z,91.81
2023-01-27T09:39:25.937Z,91.91
2023-01-27T09:40:25.926Z,91.91
2023-01-27T09:41:25.897Z,91.49
2023-01-27T09:42:25.896Z,91.39
2023-01-27T09:43:25.872Z,91.91
2023-01-27T09:44:25.862Z,92.02
2023-01-27T09:45:25.852Z,92.02
2023-01-27T09:46:25.915Z,92.12
2023-01-27T09:47:25.833Z,92.12
2023-01-27T09:48:25.814Z,92.12
2023-01-27T09:49:25.801Z,92.23
2023-01-27T09:50:25.789Z,92.12
2023-01-27T09:51:25.769Z,91.60
2023-01-27T09:52:30.612Z,91.91
2023-01-27T09:53:26.783Z,91.81
2023-01-27T09:54:25.764Z,91.91
2023-01-27T09:55:25.726Z,91.71
2023-01-27T09:56:25.712Z,91.28
2023-01-27T09:57:25.698Z,91.28
2023-01-27T09:58:25.689Z,91.18
2023-01-27T09:59:25.665Z,91.71
2023-01-27T10:00:25.662Z,91.77
2023-01-27T10:01:25.676Z,91.45
2023-01-27T10:02:25.647Z,91.66
2023-01-27T10:03:25.616Z,91.45
2023-01-27T10:04:25.665Z,91.03
2023-01-27T10:05:25.602Z,90.72
2023-01-27T10:06:25.586Z,91.07
2023-01-27T10:07:25.582Z,91.56
2023-01-27T10:08:25.557Z,91.77
2023-01-27T10:09:25.557Z,91.97
2023-01-27T10:10:25.566Z,91.97
2023-01-27T10:11:25.521Z,91.97
2023-01-27T10:12:25.516Z,92.08
2023-01-27T10:13:25.498Z,91.14
2023-01-27T10:14:25.486Z,91.03
2023-01-27T10:15:25.465Z,91.35
2023-01-27T10:16:25.516Z,91.56
2023-01-27T10:17:25.447Z,91.35
2023-01-27T10:18:25.439Z,91.09
2023-01-27T10:19:25.412Z,90.89
2023-01-27T10:20:25.400Z,90.67
2023-01-27T10:21:25.398Z,90.78
2023-01-27T10:22:25.407Z,90.89
2023-01-27T10:23:25.363Z,90.78
2023-01-27T10:24:25.424Z,91.09
2023-01-27T10:25:25.345Z,91.09
2023-01-27T10:26:25.353Z,91.41
2023-01-27T10:27:25.318Z,90.51
2023-01-27T10:28:25.299Z,90.19
2023-01-27T10:29:25.304Z,90.61
2023-01-27T10:30:25.278Z,90.82
2023-01-27T10:31:25.292Z,91.24
2023-01-27T10:32:25.255Z,91.39
2023-01-27T10:33:27.273Z,92.12
2023-01-27T10:34:25.227Z,92.12
2023-01-27T10:35:25.218Z,92.23
2023-01-27T10:36:25.231Z,92.12
2023-01-27T10:37:25.192Z,92.33
2023-01-27T10:38:25.179Z,92.19
2023-01-27T10:39:25.168Z,92.02
2023-01-27T10:40:25.151Z,92.08
2023-01-27T10:41:25.147Z,92.50
2023-01-27T10:42:25.150Z,92.61
2023-01-27T10:43:25.117Z,92.50
2023-01-27T10:44:25.104Z,92.29
2023-01-27T10:45:25.136Z,91.87
2023-01-27T10:46:25.125Z,91.87
2023-01-27T10:47:25.102Z,91.97
2023-01-27T10:48:25.064Z,92.19
2023-01-27T10:49:25.044Z,92.29
2023-01-27T10:50:25.029Z,91.97
2023-01-27T10:51:25.016Z,91.97
2023-01-27T10:52:24.999Z,92.08
2023-01-27T10:53:25.004Z,92.19
2023-01-27T10:54:24.967Z,92.50
2023-01-27T10:55:24.963Z,92.19
2023-01-27T10:56:24.950Z,92.19
2023-01-27T10:57:24.931Z,92.02
2023-01-27T10:58:24.975Z,92.33
2023-01-27T10:59:24.905Z,92.82
2023-01-27T11:00:51.814Z,93.07
2023-01-27T11:01:26.567Z,92.02
2023-01-27T11:02:24.876Z,92.02
2023-01-27T11:03:24.860Z,91.91
2023-01-27T11:04:24.895Z,92.02
2023-01-27T11:05:24.841Z,92.29
2023-01-27T11:06:24.823Z,92.23
2023-01-27T11:07:24.830Z,92.76
2023-01-27T11:08:24.809Z,93.28
2023-01-27T11:09:24.794Z,93.59
2023-01-27T11:10:24.780Z,93.38
2023-01-27T11:11:24.755Z,93.49
2023-01-27T11:12:24.755Z,93.38
2023-01-27T11:13:24.741Z,92.54
2023-01-27T11:14:24.743Z,92.12
2023-01-27T11:15:24.715Z,91.91
2023-01-27T11:16:24.822Z,91.81
2023-01-27T11:17:24.691Z,92.08
2023-01-27T11:18:24.681Z,92.19
2023-01-27T11:19:24.672Z,91.77
2023-01-27T11:20:24.660Z,91.77
2023-01-27T11:21:24.639Z,91.39
2023-01-27T11:22:24.636Z,91.56
2023-01-27T11:23:24.605Z,91.24
2023-01-27T11:24:24.646Z,91.14
2023-01-27T11:25:24.586Z,91.14
2023-01-27T11:26:24.575Z,91.03
2023-01-27T11:27:24.558Z,90.72
2023-01-27T11:28:24.560Z,91.03
2023-01-27T11:29:24.540Z,91.24
2023-01-27T11:30:24.597Z,91.14
2023-01-27T11:31:24.581Z,91.35
2023-01-27T11:32:24.489Z,90.19
2023-01-27T11:33:24.483Z,89.98
2023-01-27T11:34:24.462Z,89.98
2023-01-27T11:35:24.471Z,89.87
2023-01-27T11:36:24.435Z,89.56
2023-01-27T11:37:24.449Z,89.56
2023-01-27T11:38:24.442Z,89.87
2023-01-27T11:39:24.410Z,90.30
2023-01-27T11:40:24.395Z,90.30
2023-01-27T11:41:24.380Z,90.72
2023-01-27T11:42:24.367Z,89.77
2023-01-27T11:43:24.354Z,89.87
2023-01-27T11:44:24.367Z,90.09
2023-01-27T11:45:24.331Z,90.36
2023-01-27T11:46:24.392Z,90.47
2023-01-27T11:47:24.313Z,90.67
2023-01-27T11:48:24.298Z,90.25
2023-01-27T11:49:24.279Z,90.05
2023-01-27T11:50:24.299Z,89.35
2023-01-27T11:51:24.248Z,89.67
2023-01-27T11:52:24.232Z,89.87
2023-01-27T11:53:24.215Z,90.19
2023-01-27T11:54:24.224Z,90.51
2023-01-27T11:55:24.193Z,90.72
2023-01-27T11:56:24.195Z,90.25
2023-01-27T11:57:24.172Z,90.19
2023-01-27T11:58:24.179Z,90.25
2023-01-27T11:59:24.162Z,89.87
2023-01-27T12:00:24.142Z,90.09
2023-01-27T12:01:24.148Z,90.09
2023-01-27T12:02:24.183Z,89.87
2023-01-27T12:03:24.155Z,89.87
2023-01-27T12:04:24.238Z,89.98
2023-01-27T12:05:24.075Z,90.55
2023-01-27T12:06:24.064Z,90.82
2023-01-27T12:07:24.043Z,90.92
2023-01-27T12:08:24.032Z,91.24
2023-01-27T12:09:24.015Z,91.14
2023-01-27T12:10:24.011Z,91.24
2023-01-27T12:11:24.006Z,91.56
2023-01-27T12:12:23.993Z,91.66
2023-01-27T12:13:23.976Z,91.45
2023-01-27T12:14:23.967Z,91.18
2023-01-27T12:15:23.964Z,91.35
2023-01-27T12:16:23.980Z,91.35
2023-01-27T12:17:23.930Z,91.24
2023-01-27T12:18:23.942Z,91.77
2023-01-27T12:19:23.890Z,91.87
2023-01-27T12:20:23.885Z,91.45
2023-01-27T12:21:23.869Z,91.77
2023-01-27T12:22:23.866Z,92.08
2023-01-27T12:23:23.855Z,92.19
2023-01-27T12:24:23.920Z,91.66
2023-01-27T12:25:23.825Z,91.24
2023-01-27T12:26:23.814Z,91.66
2023-01-27T12:27:23.817Z,91.87
2023-01-27T12:28:23.801Z,91.77
2023-01-27T12:29:23.775Z,91.97
2023-01-27T12:30:23.763Z,92.40
2023-01-27T12:31:23.789Z,92.23
2023-01-27T12:32:23.734Z,91.77
2023-01-27T12:33:23.723Z,91.77
2023-01-27T12:34:23.732Z,91.66
2023-01-27T12:35:23.704Z,91.45
2023-01-27T12:36:23.678Z,91.56
2023-01-27T12:37:23.665Z,91.45
2023-01-27T12:38:23.660Z,91.45
2023-01-27T12:39:23.652Z,91.77
2023-01-27T12:40:23.621Z,91.77
2023-01-27T12:41:23.619Z,91.24
2023-01-27T12:42:23.613Z,91.39
2023-01-27T12:43:23.586Z,91.77
2023-01-27T12:44:23.601Z,92.19
2023-01-27T12:45:23.565Z,92.50
2023-01-27T12:46:23.616Z,92.50
2023-01-27T12:47:23.544Z,92.12
2023-01-27T12:48:23.531Z,92.08
2023-01-27T12:49:23.525Z,92.50
2023-01-27T12:50:23.523Z,92.82
2023-01-27T12:51:23.496Z,92.71
2023-01-27T12:52:23.478Z,91.97